Time;durP1;ratioP1;P1;durP2;ratioP2;P2;SDS_P1;SDS_P2;PMS_P1;PMS_P2;Temp;Humidity;BMP_temperature;BMP_pressure;BME280_temperature;BME280_humidity;BME280_pressure;Samples;Min_cycle;Max_cycle;Signal;HPM_P1;HPM_P2
2023/01/23 00:01:51;;;;;;;26.90;16.30;;;;;;;;;;5072926;28;20207;-77
2023/01/23 00:04:17;;;;;;;24.13;16.20;;;;;;;;;;5056267;28;20180;-77
2023/01/23 00:06:43;;;;;;;27.75;15.93;;;;;;;;;;5071857;28;20246;-78
2023/01/23 00:09:09;;;;;;;28.58;17.25;;;;;;;;;;5072237;28;20645;-77
2023/01/23 00:11:35;;;;;;;25.95;17.20;;;;;;;;;;5057175;28;20184;-77
2023/01/23 00:14:02;;;;;;;24.10;16.30;;;;;;;;;;5057786;28;20229;-77
2023/01/23 00:16:30;;;;;;;22.95;14.38;;;;;;;;;;5039333;28;20217;-78
2023/01/23 00:18:56;;;;;;;29.52;16.83;;;;;;;;;;5057948;28;20176;-78
2023/01/23 00:21:23;;;;;;;23.42;15.85;;;;;;;;;;5057693;28;20177;-78
2023/01/23 00:23:51;;;;;;;25.95;15.75;;;;;;;;;;5039660;28;20181;-78
2023/01/23 00:26:22;;;;;;;26.88;16.98;;;;;;;;;;5058161;28;20177;-78
2023/01/23 00:28:49;;;;;;;23.77;15.40;;;;;;;;;;5057189;28;20172;-78
2023/01/23 00:31:19;;;;;;;24.85;14.45;;;;;;;;;;5057160;28;20705;-78
2023/01/23 00:33:46;;;;;;;24.55;15.48;;;;;;;;;;5056607;28;20193;-77
2023/01/23 00:36:12;;;;;;;19.95;14.00;;;;;;;;;;5057617;28;20172;-78
2023/01/23 00:38:39;;;;;;;20.40;14.05;;;;;;;;;;5039683;28;20245;-77
2023/01/23 00:41:05;;;;;;;24.90;15.45;;;;;;;;;;5057212;28;20181;-78
2023/01/23 00:43:32;;;;;;;22.15;14.50;;;;;;;;;;5056739;28;20591;-78
2023/01/23 00:45:58;;;;;;;23.50;15.23;;;;;;;;;;5057739;28;20199;-77
2023/01/23 00:48:24;;;;;;;21.23;14.82;;;;;;;;;;5057567;28;20177;-78
2023/01/23 00:50:50;;;;;;;24.85;14.25;;;;;;;;;;5039223;28;20207;-78
2023/01/23 00:53:16;;;;;;;24.85;14.75;;;;;;;;;;5072872;28;20176;-78
2023/01/23 00:55:42;;;;;;;27.42;14.80;;;;;;;;;;5039076;28;20172;-78
2023/01/23 00:58:09;;;;;;;21.02;14.38;;;;;;;;;;5057549;28;20173;-78
2023/01/23 01:00:35;;;;;;;23.58;14.13;;;;;;;;;;5056815;28;20177;-78
2023/01/23 01:03:02;;;;;;;24.35;14.77;;;;;;;;;;5057197;28;20179;-78
2023/01/23 01:05:28;;;;;;;16.88;12.75;;;;;;;;;;5057138;28;20167;-78
2023/01/23 01:07:54;;;;;;;20.23;13.25;;;;;;;;;;5056956;28;20270;-78
2023/01/23 01:10:20;;;;;;;19.40;13.48;;;;;;;;;;5056656;28;20195;-77
2023/01/23 01:12:46;;;;;;;20.88;13.40;;;;;;;;;;5039027;28;20839;-79
2023/01/23 01:15:12;;;;;;;20.02;14.75;;;;;;;;;;5056966;28;20582;-79
2023/01/23 01:17:38;;;;;;;22.38;15.07;;;;;;;;;;5056285;28;20185;-77
2023/01/23 01:20:05;;;;;;;25.58;15.20;;;;;;;;;;5059572;28;20264;-77
2023/01/23 01:22:31;;;;;;;20.50;13.95;;;;;;;;;;5060328;28;20204;-78
2023/01/23 01:24:57;;;;;;;22.25;13.73;;;;;;;;;;5076099;28;20181;-77
2023/01/23 01:27:23;;;;;;;20.52;13.95;;;;;;;;;;5060281;28;20181;-78
2023/01/23 01:29:49;;;;;;;20.05;14.30;;;;;;;;;;5059935;28;20197;-78
2023/01/23 01:32:15;;;;;;;23.20;14.93;;;;;;;;;;5060530;28;20184;-79
2023/01/23 01:34:41;;;;;;;27.85;13.35;;;;;;;;;;5060296;28;20407;-77
2023/01/23 01:37:07;;;;;;;20.52;13.30;;;;;;;;;;5060656;28;20187;-77
2023/01/23 01:39:33;;;;;;;19.23;12.80;;;;;;;;;;5058777;28;20184;-77
2023/01/23 01:41:59;;;;;;;19.87;14.40;;;;;;;;;;5042277;28;20439;-77
2023/01/23 01:44:25;;;;;;;20.60;13.13;;;;;;;;;;5059926;28;20410;-77
2023/01/23 01:46:51;;;;;;;20.75;13.80;;;;;;;;;;5060589;28;20415;-81
2023/01/23 01:49:20;;;;;;;20.48;13.70;;;;;;;;;;5060782;28;20224;-78
2023/01/23 01:51:49;;;;;;;16.45;12.75;;;;;;;;;;5059925;28;20177;-78
2023/01/23 01:54:27;;;;;;;15.95;11.43;;;;;;;;;;5060000;28;20176;-78
2023/01/23 01:56:53;;;;;;;19.88;13.60;;;;;;;;;;5075420;28;20258;-77
2023/01/23 01:59:21;;;;;;;19.43;13.57;;;;;;;;;;5074868;28;20218;-79
2023/01/23 02:01:49;;;;;;;19.00;12.73;;;;;;;;;;5073852;28;20423;-78
2023/01/23 02:04:15;;;;;;;21.85;14.60;;;;;;;;;;5059481;28;20512;-78
2023/01/23 02:06:41;;;;;;;19.48;14.55;;;;;;;;;;5058200;28;20235;-78
2023/01/23 02:09:10;;;;;;;21.83;13.38;;;;;;;;;;5075129;28;20230;-78
2023/01/23 02:11:36;;;;;;;19.90;12.48;;;;;;;;;;5059600;28;20175;-77
2023/01/23 02:14:02;;;;;;;18.13;12.65;;;;;;;;;;5059847;28;20171;-78
2023/01/23 02:16:30;;;;;;;18.52;13.27;;;;;;;;;;5075268;28;20637;-79
2023/01/23 02:19:03;;;;;;;19.40;14.00;;;;;;;;;;5075055;28;20188;-78
2023/01/23 02:21:29;;;;;;;19.00;13.05;;;;;;;;;;5060010;28;20236;-78
2023/01/23 02:24:14;;;;;;;20.00;13.17;;;;;;;;;;5075062;28;20218;-78
2023/01/23 02:26:42;;;;;;;19.48;13.20;;;;;;;;;;5075171;28;20410;-78
2023/01/23 02:29:09;;;;;;;20.73;12.80;;;;;;;;;;5059826;28;20175;-78
2023/01/23 02:31:36;;;;;;;20.10;14.10;;;;;;;;;;5058666;28;20177;-78
2023/01/23 02:34:02;;;;;;;20.30;13.63;;;;;;;;;;5041752;28;20215;-78
2023/01/23 02:36:30;;;;;;;21.60;15.80;;;;;;;;;;5041817;28;20185;-77
2023/01/23 02:39:02;;;;;;;19.52;13.73;;;;;;;;;;5074625;28;20270;-77
2023/01/23 02:41:30;;;;;;;21.23;13.90;;;;;;;;;;5059276;28;20172;-78
2023/01/23 02:43:58;;;;;;;21.00;13.70;;;;;;;;;;5059277;28;20176;-78
2023/01/23 02:46:24;;;;;;;20.05;13.80;;;;;;;;;;5074432;28;20173;-77
2023/01/23 02:48:50;;;;;;;20.00;12.95;;;;;;;;;;5058483;28;20203;-77
2023/01/23 02:51:17;;;;;;;21.42;12.40;;;;;;;;;;5058865;28;20219;-78
2023/01/23 02:53:44;;;;;;;18.83;13.50;;;;;;;;;;5059118;28;20164;-77
2023/01/23 02:56:10;;;;;;;20.45;13.63;;;;;;;;;;5074659;28;20187;-77
2023/01/23 03:01:20;;;;;;;23.38;15.27;;;;;;;;;;5058851;28;20176;-78
2023/01/23 03:03:50;;;;;;;18.48;12.85;;;;;;;;;;5074111;28;20189;-79
2023/01/23 03:06:16;;;;;;;19.55;13.38;;;;;;;;;;5058650;28;20176;-77
2023/01/23 03:08:48;;;;;;;22.73;14.05;;;;;;;;;;5057928;28;20221;-77
2023/01/23 03:11:15;;;;;;;18.65;12.68;;;;;;;;;;5041414;28;20228;-77
2023/01/23 03:13:41;;;;;;;23.60;14.23;;;;;;;;;;5073698;28;20201;-77
2023/01/23 03:16:08;;;;;;;20.63;13.17;;;;;;;;;;5056927;28;20189;-78
2023/01/23 03:18:34;;;;;;;23.92;14.63;;;;;;;;;;5073322;28;20769;-80
2023/01/23 03:21:07;;;;;;;23.02;14.48;;;;;;;;;;5056713;28;20193;-77
2023/01/23 03:23:33;;;;;;;23.52;14.15;;;;;;;;;;5057680;28;20239;-77
2023/01/23 03:25:59;;;;;;;21.10;14.02;;;;;;;;;;5072393;28;20206;-77
2023/01/23 03:31:11;;;;;;;21.05;14.40;;;;;;;;;;5057749;28;20203;-77
2023/01/23 03:33:38;;;;;;;21.65;14.65;;;;;;;;;;5072375;28;20208;-78
2023/01/23 03:36:05;;;;;;;19.77;13.18;;;;;;;;;;5057413;28;20221;-78
2023/01/23 03:38:31;;;;;;;20.75;12.30;;;;;;;;;;5058186;28;20177;-77
2023/01/23 03:44:01;;;;;;;19.92;12.85;;;;;;;;;;4996503;28;20189;-77
2023/01/23 03:46:27;;;;;;;23.73;15.07;;;;;;;;;;4996041;28;20260;-77
2023/01/23 03:48:53;;;;;;;21.13;15.07;;;;;;;;;;5007695;28;20420;-78
2023/01/23 03:51:19;;;;;;;19.37;13.40;;;;;;;;;;5073277;28;20478;-77
2023/01/23 03:53:45;;;;;;;20.53;13.83;;;;;;;;;;5057299;28;20478;-78
2023/01/23 03:56:11;;;;;;;20.83;13.93;;;;;;;;;;5040134;28;20418;-78
2023/01/23 03:58:37;;;;;;;21.42;13.80;;;;;;;;;;5072984;28;20178;-83
2023/01/23 04:01:08;;;;;;;20.20;13.63;;;;;;;;;;5039952;28;20186;-77
2023/01/23 04:03:34;;;;;;;21.88;15.57;;;;;;;;;;5057451;28;20419;-77
2023/01/23 04:06:00;;;;;;;22.63;15.00;;;;;;;;;;5057216;28;20174;-77
2023/01/23 04:08:27;;;;;;;23.63;15.43;;;;;;;;;;5057377;28;20224;-77
2023/01/23 04:11:01;;;;;;;25.85;15.70;;;;;;;;;;5055784;28;20508;-78
2023/01/23 04:13:28;;;;;;;21.23;14.88;;;;;;;;;;5039929;28;20260;-78
2023/01/23 04:15:53;;;;;;;23.95;14.75;;;;;;;;;;5056311;28;20533;-77
2023/01/23 04:18:19;;;;;;;25.53;14.47;;;;;;;;;;5072598;28;20213;-77
2023/01/23 04:20:45;;;;;;;23.83;15.40;;;;;;;;;;5072306;28;20433;-78
2023/01/23 04:23:11;;;;;;;20.90;14.60;;;;;;;;;;5072553;28;20428;-77
2023/01/23 04:25:37;;;;;;;21.57;13.57;;;;;;;;;;5055970;28;20189;-78
2023/01/23 04:28:03;;;;;;;24.90;14.67;;;;;;;;;;5057508;28;20895;-78
2023/01/23 04:30:29;;;;;;;24.48;15.18;;;;;;;;;;5058049;28;20473;-77
2023/01/23 04:32:55;;;;;;;20.17;13.43;;;;;;;;;;5072480;28;20174;-77
2023/01/23 04:35:21;;;;;;;23.73;13.90;;;;;;;;;;5057671;28;20263;-77
2023/01/23 04:37:47;;;;;;;21.35;14.85;;;;;;;;;;5054999;28;20435;-78
2023/01/23 04:40:14;;;;;;;22.30;13.75;;;;;;;;;;5071529;28;20595;-78
2023/01/23 04:42:40;;;;;;;23.77;15.80;;;;;;;;;;5056915;28;20663;-82
2023/01/23 04:45:06;;;;;;;21.63;13.18;;;;;;;;;;5057429;28;20223;-77
2023/01/23 04:47:32;;;;;;;22.77;13.90;;;;;;;;;;5057566;28;20173;-77
2023/01/23 04:49:58;;;;;;;23.73;13.73;;;;;;;;;;5072684;28;20587;-77
2023/01/23 04:52:24;;;;;;;22.70;14.10;;;;;;;;;;5057266;28;20182;-78
2023/01/23 04:54:50;;;;;;;23.10;14.45;;;;;;;;;;5075305;28;20903;-78
2023/01/23 04:57:16;;;;;;;21.53;14.00;;;;;;;;;;5076848;28;20188;-77
2023/01/23 04:59:42;;;;;;;23.67;15.40;;;;;;;;;;5061104;28;20462;-78
2023/01/23 05:02:08;;;;;;;21.25;14.07;;;;;;;;;;5076708;28;20414;-77
2023/01/23 05:04:34;;;;;;;20.40;13.27;;;;;;;;;;5076306;28;20188;-78
2023/01/23 05:07:00;;;;;;;21.90;14.65;;;;;;;;;;5060812;28;20240;-78
2023/01/23 05:09:26;;;;;;;21.50;13.77;;;;;;;;;;5043669;28;20212;-78
2023/01/23 05:11:52;;;;;;;22.27;15.00;;;;;;;;;;5043294;28;20415;-78
2023/01/23 05:14:18;;;;;;;25.20;15.03;;;;;;;;;;5076485;28;20464;-77
2023/01/23 05:16:44;;;;;;;19.40;13.38;;;;;;;;;;5060700;28;20873;-78
2023/01/23 05:19:10;;;;;;;24.45;15.23;;;;;;;;;;5060893;28;20183;-77
2023/01/23 05:21:36;;;;;;;22.60;14.27;;;;;;;;;;5059271;28;20246;-78
2023/01/23 05:24:02;;;;;;;21.42;14.30;;;;;;;;;;5076061;28;20476;-77
2023/01/23 05:26:28;;;;;;;19.92;12.73;;;;;;;;;;5060574;28;20694;-78
2023/01/23 05:28:54;;;;;;;23.47;14.20;;;;;;;;;;5060331;28;20187;-77
2023/01/23 05:31:20;;;;;;;19.52;12.77;;;;;;;;;;5060487;28;20467;-77
2023/01/23 05:33:46;;;;;;;22.00;14.20;;;;;;;;;;5060329;28;20187;-78
2023/01/23 05:36:12;;;;;;;19.83;13.53;;;;;;;;;;5060133;28;20735;-78
2023/01/23 05:38:39;;;;;;;19.30;13.05;;;;;;;;;;5075203;28;20463;-77
2023/01/23 05:41:05;;;;;;;21.55;13.35;;;;;;;;;;5059292;28;20182;-78
2023/01/23 05:43:31;;;;;;;19.70;13.50;;;;;;;;;;5075503;28;20183;-78
2023/01/23 05:45:59;;;;;;;22.13;13.57;;;;;;;;;;5075572;28;20184;-77
2023/01/23 05:48:25;;;;;;;23.00;16.30;;;;;;;;;;5074967;28;20408;-78
2023/01/23 05:50:51;;;;;;;20.90;13.90;;;;;;;;;;5060074;28;20531;-78
2023/01/23 05:53:17;;;;;;;20.88;14.13;;;;;;;;;;5059536;28;20507;-78
2023/01/23 05:55:43;;;;;;;22.17;13.50;;;;;;;;;;5059386;28;20178;-78
2023/01/23 05:58:09;;;;;;;21.10;13.30;;;;;;;;;;5075057;28;20423;-77
2023/01/23 06:00:35;;;;;;;20.67;14.13;;;;;;;;;;5075226;28;20184;-78
2023/01/23 06:03:01;;;;;;;19.80;13.25;;;;;;;;;;5059054;28;20612;-78
2023/01/23 06:05:27;;;;;;;19.90;13.37;;;;;;;;;;5058430;28;20227;-77
2023/01/23 06:07:53;;;;;;;22.35;14.75;;;;;;;;;;5074147;28;20475;-78
2023/01/23 06:10:19;;;;;;;18.88;14.20;;;;;;;;;;5057932;28;20316;-78
2023/01/23 06:12:45;;;;;;;19.88;12.82;;;;;;;;;;5059618;28;20203;-82
2023/01/23 06:15:11;;;;;;;22.98;14.10;;;;;;;;;;5075115;28;20204;-78
2023/01/23 06:17:37;;;;;;;19.52;13.35;;;;;;;;;;5058567;28;20181;-78
2023/01/23 06:20:04;;;;;;;21.70;13.98;;;;;;;;;;5057939;28;20271;-77
2023/01/23 06:22:30;;;;;;;18.40;12.43;;;;;;;;;;5041925;28;20228;-78
2023/01/23 06:24:56;;;;;;;19.38;12.63;;;;;;;;;;5059411;28;20180;-78
2023/01/23 06:27:22;;;;;;;20.20;13.60;;;;;;;;;;5059815;28;20578;-78
2023/01/23 06:29:48;;;;;;;18.55;13.63;;;;;;;;;;5041806;28;20473;-78
2023/01/23 06:32:14;;;;;;;20.80;12.77;;;;;;;;;;5059223;28;20187;-79
2023/01/23 06:34:40;;;;;;;18.20;12.20;;;;;;;;;;5059444;28;20470;-78
2023/01/23 06:37:06;;;;;;;18.65;12.20;;;;;;;;;;5057949;28;20443;-78
2023/01/23 06:39:33;;;;;;;20.88;14.02;;;;;;;;;;5058267;28;20655;-78
2023/01/23 06:41:59;;;;;;;20.67;12.73;;;;;;;;;;5059354;28;20180;-78
2023/01/23 06:44:25;;;;;;;18.80;13.25;;;;;;;;;;5075195;28;20178;-78
2023/01/23 06:46:54;;;;;;;23.45;13.65;;;;;;;;;;5059202;28;20183;-78
2023/01/23 06:49:20;;;;;;;27.58;13.55;;;;;;;;;;5059388;28;20640;-78
2023/01/23 06:51:46;;;;;;;20.10;13.00;;;;;;;;;;5059589;28;20176;-78
2023/01/23 06:54:12;;;;;;;16.63;12.90;;;;;;;;;;5074933;28;20879;-78
2023/01/23 06:56:38;;;;;;;18.63;12.07;;;;;;;;;;5074695;28;20480;-77
2023/01/23 06:59:04;;;;;;;20.07;12.50;;;;;;;;;;5059212;28;20438;-77
2023/01/23 07:01:29;;;;;;;17.20;12.80;;;;;;;;;;5068394;28;20431;-78
2023/01/23 07:03:55;;;;;;;17.27;12.43;;;;;;;;;;5039039;28;20449;-78
2023/01/23 07:06:21;;;;;;;18.50;11.60;;;;;;;;;;5053824;28;21154;-78
2023/01/23 07:08:48;;;;;;;15.40;11.57;;;;;;;;;;5054377;28;20461;-78
2023/01/23 07:11:15;;;;;;;16.35;10.82;;;;;;;;;;5039276;28;20252;-77
2023/01/23 07:13:41;;;;;;;19.63;12.88;;;;;;;;;;5038706;28;20186;-78
2023/01/23 07:16:07;;;;;;;16.40;11.32;;;;;;;;;;5051541;28;20219;-78
2023/01/23 07:18:33;;;;;;;18.48;13.27;;;;;;;;;;5039017;28;20176;-77
2023/01/23 07:20:59;;;;;;;18.13;11.38;;;;;;;;;;5037997;28;20630;-78
2023/01/23 07:23:25;;;;;;;17.88;11.50;;;;;;;;;;5054607;28;20535;-78
2023/01/23 07:25:57;;;;;;;19.00;11.52;;;;;;;;;;5053442;28;20234;-78
2023/01/23 07:28:23;;;;;;;18.10;12.50;;;;;;;;;;5038974;28;20177;-77
2023/01/23 07:30:49;;;;;;;17.23;12.23;;;;;;;;;;5054230;28;20211;-80
2023/01/23 07:33:16;;;;;;;18.58;12.57;;;;;;;;;;5054808;28;20495;-78
2023/01/23 07:35:42;;;;;;;15.88;10.65;;;;;;;;;;5038283;28;20267;-77
2023/01/23 07:38:07;;;;;;;15.23;12.33;;;;;;;;;;5038404;28;20657;-78
2023/01/23 07:40:33;;;;;;;16.60;10.98;;;;;;;;;;5053649;28;20522;-78
2023/01/23 07:42:59;;;;;;;16.02;10.98;;;;;;;;;;5053739;28;20180;-78
2023/01/23 07:45:25;;;;;;;19.77;12.37;;;;;;;;;;5038537;28;20260;-77
2023/01/23 07:47:51;;;;;;;15.13;11.88;;;;;;;;;;5053456;28;20456;-80
2023/01/23 07:50:17;;;;;;;15.70;11.80;;;;;;;;;;5053695;28;20716;-77
2023/01/23 07:52:43;;;;;;;16.25;12.40;;;;;;;;;;5053803;28;20227;-78
2023/01/23 07:55:09;;;;;;;16.37;10.47;;;;;;;;;;5053630;28;20679;-78
2023/01/23 07:57:35;;;;;;;18.38;12.75;;;;;;;;;;5053452;28;20415;-77
2023/01/23 08:00:01;;;;;;;16.95;12.20;;;;;;;;;;5037842;28;20299;-77
2023/01/23 08:02:27;;;;;;;16.88;10.90;;;;;;;;;;5038419;28;20196;-77
2023/01/23 08:04:53;;;;;;;15.38;10.82;;;;;;;;;;5037640;28;20253;-78
2023/01/23 08:07:19;;;;;;;15.68;11.80;;;;;;;;;;5037735;28;20233;-78
2023/01/23 08:09:45;;;;;;;16.47;12.27;;;;;;;;;;5053002;28;20208;-78
2023/01/23 08:12:11;;;;;;;17.77;11.60;;;;;;;;;;5036040;28;20436;-78
2023/01/23 08:14:38;;;;;;;17.50;11.82;;;;;;;;;;5052876;28;20412;-77
2023/01/23 08:17:04;;;;;;;16.35;10.70;;;;;;;;;;5052462;28;20648;-77
2023/01/23 08:19:30;;;;;;;22.35;13.77;;;;;;;;;;5053069;28;20188;-78
2023/01/23 08:21:56;;;;;;;17.67;11.73;;;;;;;;;;5037248;28;20173;-78
2023/01/23 08:24:22;;;;;;;17.20;12.10;;;;;;;;;;5052907;28;20453;-77
2023/01/23 08:26:48;;;;;;;16.75;12.07;;;;;;;;;;5037559;28;20870;-77
2023/01/23 08:29:14;;;;;;;15.77;11.73;;;;;;;;;;5036918;28;20185;-77
2023/01/23 08:31:40;;;;;;;15.30;11.53;;;;;;;;;;5037586;28;20423;-78
2023/01/23 08:34:06;;;;;;;16.50;11.77;;;;;;;;;;5036247;28;20416;-78
2023/01/23 08:36:32;;;;;;;17.87;12.13;;;;;;;;;;5036307;28;20436;-78
2023/01/23 08:38:59;;;;;;;15.88;11.38;;;;;;;;;;5037517;28;20488;-78
2023/01/23 08:41:25;;;;;;;17.00;11.25;;;;;;;;;;5037717;28;20181;-77
2023/01/23 08:43:51;;;;;;;20.15;12.40;;;;;;;;;;5037506;28;20528;-77
2023/01/23 08:46:17;;;;;;;17.07;12.40;;;;;;;;;;5037328;28;20256;-77
2023/01/23 08:48:43;;;;;;;16.37;11.93;;;;;;;;;;5037940;28;20771;-78
2023/01/23 08:51:11;;;;;;;16.38;11.40;;;;;;;;;;5052974;28;20522;-79
2023/01/23 08:53:37;;;;;;;15.25;11.82;;;;;;;;;;5037665;28;20227;-78
2023/01/23 08:56:05;;;;;;;19.23;13.30;;;;;;;;;;5052588;28;20206;-78
2023/01/23 08:58:31;;;;;;;16.27;12.23;;;;;;;;;;5037444;28;20223;-77
2023/01/23 09:00:57;;;;;;;15.68;11.30;;;;;;;;;;5052164;28;20189;-78
2023/01/23 09:03:26;;;;;;;18.40;12.70;;;;;;;;;;5051535;28;20188;-78
2023/01/23 09:05:52;;;;;;;16.15;12.02;;;;;;;;;;5051100;28;20181;-78
2023/01/23 09:08:18;;;;;;;19.70;13.80;;;;;;;;;;5049914;28;20675;-78
2023/01/23 09:10:44;;;;;;;20.80;13.15;;;;;;;;;;5035362;28;20496;-78
2023/01/23 09:13:10;;;;;;;14.43;11.75;;;;;;;;;;5035177;28;20173;-78
2023/01/23 09:15:40;;;;;;;18.10;10.77;;;;;;;;;;5033615;28;20177;-78
2023/01/23 09:18:06;;;;;;;16.95;12.13;;;;;;;;;;5050095;28;20178;-78
2023/01/23 09:20:32;;;;;;;20.17;14.45;;;;;;;;;;5065346;28;20185;-78
2023/01/23 09:22:58;;;;;;;19.92;13.32;;;;;;;;;;5041269;28;20218;-81
2023/01/23 09:25:24;;;;;;;17.13;12.13;;;;;;;;;;5057120;28;20536;-83
2023/01/23 09:27:50;;;;;;;18.60;12.35;;;;;;;;;;5055974;28;20206;-83
2023/01/23 09:30:16;;;;;;;21.02;13.95;;;;;;;;;;5055604;28;20213;-83
2023/01/23 09:32:42;;;;;;;19.15;12.55;;;;;;;;;;5039901;28;20246;-78
2023/01/23 09:35:09;;;;;;;20.30;13.07;;;;;;;;;;5056830;28;20577;-77
2023/01/23 09:40:22;;;;;;;21.25;13.25;;;;;;;;;;5076963;28;20183;-78
2023/01/23 09:42:49;;;;;;;20.67;13.10;;;;;;;;;;5060766;28;20182;-78
2023/01/23 09:45:17;;;;;;;19.92;13.27;;;;;;;;;;5060165;28;20535;-78
2023/01/23 09:47:50;;;;;;;18.55;12.88;;;;;;;;;;5060880;28;20184;-79
2023/01/23 09:50:27;;;;;;;16.33;12.27;;;;;;;;;;5078535;28;20202;-78
2023/01/23 09:53:07;;;;;;;20.75;12.65;;;;;;;;;;5078483;28;20230;-78
2023/01/23 09:56:00;;;;;;;18.40;13.95;;;;;;;;;;5060541;28;20628;-77
2023/01/23 09:58:41;;;;;;;19.77;13.52;;;;;;;;;;5057686;28;20183;-78
2023/01/23 10:01:14;;;;;;;20.73;14.07;;;;;;;;;;5060522;28;20204;-78
2023/01/23 10:03:41;;;;;;;19.10;13.05;;;;;;;;;;5060715;28;20173;-78
2023/01/23 10:06:07;;;;;;;20.40;13.27;;;;;;;;;;5054214;28;20576;-78
2023/01/23 10:08:51;;;;;;;20.27;14.00;;;;;;;;;;5048656;28;20248;-77
2023/01/23 10:11:20;;;;;;;19.65;13.02;;;;;;;;;;5063782;28;20200;-77
2023/01/23 10:13:55;;;;;;;21.17;14.50;;;;;;;;;;5041082;28;20571;-77
2023/01/23 10:16:49;;;;;;;22.13;13.10;;;;;;;;;;5040830;28;20191;-77
2023/01/23 10:19:15;;;;;;;23.17;14.90;;;;;;;;;;5058308;28;20157;-77
2023/01/23 10:22:02;;;;;;;19.07;12.37;;;;;;;;;;5059313;28;20171;-77
2023/01/23 10:24:48;;;;;;;21.35;13.57;;;;;;;;;;5074403;28;20447;-77
2023/01/23 10:27:21;;;;;;;21.02;13.50;;;;;;;;;;5073956;28;20476;-77
2023/01/23 10:29:49;;;;;;;19.90;14.52;;;;;;;;;;5073751;28;20242;-78
2023/01/23 10:32:25;;;;;;;22.33;14.27;;;;;;;;;;5073533;28;20214;-77
2023/01/23 10:34:51;;;;;;;20.63;13.93;;;;;;;;;;5058156;28;20217;-77
2023/01/23 10:37:24;;;;;;;19.00;13.23;;;;;;;;;;5072889;28;20212;-77
2023/01/23 10:40:02;;;;;;;20.80;15.05;;;;;;;;;;5073292;28;20481;-78
2023/01/23 10:42:28;;;;;;;20.85;13.05;;;;;;;;;;5068327;28;20179;-78
2023/01/23 10:44:54;;;;;;;21.50;13.32;;;;;;;;;;5063717;28;20186;-78
2023/01/23 10:47:25;;;;;;;18.80;14.13;;;;;;;;;;5069209;28;20181;-77
2023/01/23 10:49:51;;;;;;;20.33;13.80;;;;;;;;;;5053022;28;20197;-78
2023/01/23 10:52:31;;;;;;;25.00;14.60;;;;;;;;;;5032946;28;20176;-78
2023/01/23 10:54:57;;;;;;;20.15;14.02;;;;;;;;;;5041034;28;20422;-78
2023/01/23 10:57:24;;;;;;;20.10;12.85;;;;;;;;;;5046235;28;20180;-78
2023/01/23 10:59:54;;;;;;;18.88;13.35;;;;;;;;;;5065414;28;20494;-77
2023/01/23 11:02:25;;;;;;;20.00;13.27;;;;;;;;;;5067544;28;20171;-78
2023/01/23 11:04:52;;;;;;;19.65;13.65;;;;;;;;;;5058727;28;20620;-78
2023/01/23 11:07:20;;;;;;;22.52;14.15;;;;;;;;;;5057818;28;20257;-78
2023/01/23 11:09:55;;;;;;;21.63;14.38;;;;;;;;;;5058488;28;20212;-78
2023/01/23 11:12:21;;;;;;;22.08;13.45;;;;;;;;;;5058338;28;20183;-77
2023/01/23 11:14:48;;;;;;;18.73;12.52;;;;;;;;;;5076994;28;20226;-78
2023/01/23 11:17:24;;;;;;;20.30;14.02;;;;;;;;;;5057798;28;20173;-77
2023/01/23 11:19:53;;;;;;;18.52;13.02;;;;;;;;;;5058496;28;20609;-78
2023/01/23 11:22:29;;;;;;;19.65;13.35;;;;;;;;;;5076554;28;20239;-78
2023/01/23 11:24:55;;;;;;;20.05;13.70;;;;;;;;;;5057903;28;20217;-78
2023/01/23 11:27:28;;;;;;;19.55;12.75;;;;;;;;;;5058250;28;20363;-78
2023/01/23 11:30:04;;;;;;;21.83;13.30;;;;;;;;;;5058325;28;20204;-78
2023/01/23 11:32:32;;;;;;;22.23;13.40;;;;;;;;;;5057632;28;20204;-78
2023/01/23 11:35:14;;;;;;;21.70;13.60;;;;;;;;;;5075485;28;20169;-78
2023/01/23 11:37:40;;;;;;;20.70;13.07;;;;;;;;;;5057929;28;20183;-78
2023/01/23 11:40:09;;;;;;;20.65;13.43;;;;;;;;;;5058142;28;20266;-78
2023/01/23 11:42:38;;;;;;;24.77;14.35;;;;;;;;;;5057897;28;20227;-78
2023/01/23 11:45:11;;;;;;;18.75;13.68;;;;;;;;;;5075385;28;20165;-80
2023/01/23 11:47:37;;;;;;;21.23;14.30;;;;;;;;;;5057604;28;20625;-78
2023/01/23 11:50:12;;;;;;;17.20;11.70;;;;;;;;;;5057826;28;20208;-79
2023/01/23 11:52:50;;;;;;;15.27;10.35;;;;;;;;;;5075302;28;20764;-78
2023/01/23 11:55:19;;;;;;;15.05;10.68;;;;;;;;;;5057192;28;20280;-78
2023/01/23 11:57:55;;;;;;;15.27;11.30;;;;;;;;;;5075635;28;20250;-78
2023/01/23 12:00:32;;;;;;;12.38;9.15;;;;;;;;;;5057463;28;20233;-78
2023/01/23 12:03:04;;;;;;;13.73;9.57;;;;;;;;;;5056431;28;20572;-78
2023/01/23 12:05:36;;;;;;;12.13;8.88;;;;;;;;;;5056743;28;20211;-79
2023/01/23 12:08:14;;;;;;;11.90;8.57;;;;;;;;;;5047420;28;20654;-78
2023/01/23 12:10:41;;;;;;;11.60;8.23;;;;;;;;;;5060201;28;20205;-78
2023/01/23 12:13:16;;;;;;;13.82;9.77;;;;;;;;;;5045644;28;20193;-79
2023/01/23 12:15:45;;;;;;;15.50;10.68;;;;;;;;;;5038784;28;20212;-80
2023/01/23 12:18:20;;;;;;;21.52;13.80;;;;;;;;;;5047390;28;20253;-78
2023/01/23 12:20:58;;;;;;;10.90;8.38;;;;;;;;;;5035339;28;20704;-78
2023/01/23 12:23:36;;;;;;;13.40;7.88;;;;;;;;;;5038175;28;20196;-79
2023/01/23 12:26:18;;;;;;;12.63;8.60;;;;;;;;;;5034428;28;20677;-78
2023/01/23 12:29:03;;;;;;;12.00;9.05;;;;;;;;;;5034174;28;20228;-79
2023/01/23 12:31:32;;;;;;;9.63;8.10;;;;;;;;;;5038206;28;20210;-79
2023/01/23 12:34:05;;;;;;;18.27;11.38;;;;;;;;;;5044795;28;20178;-78
2023/01/23 12:36:34;;;;;;;48.67;27.85;;;;;;;;;;5043118;28;20601;-78
2023/01/23 12:39:00;;;;;;;17.63;10.30;;;;;;;;;;5053649;28;20192;-79
2023/01/23 12:41:35;;;;;;;17.03;12.33;;;;;;;;;;5052960;28;20240;-78
2023/01/23 12:44:05;;;;;;;15.48;11.48;;;;;;;;;;5052745;28;20558;-79
2023/01/23 12:46:32;;;;;;;12.55;9.40;;;;;;;;;;5053076;28;20540;-78
2023/01/23 12:49:05;;;;;;;12.40;8.43;;;;;;;;;;5053516;28;20618;-78
2023/01/23 12:51:37;;;;;;;14.75;10.60;;;;;;;;;;5052465;28;20560;-79
2023/01/23 12:54:06;;;;;;;13.48;9.75;;;;;;;;;;5046051;28;20604;-78
2023/01/23 12:56:36;;;;;;;13.82;10.00;;;;;;;;;;5052374;28;20719;-78
2023/01/23 12:59:21;;;;;;;12.65;9.02;;;;;;;;;;5053061;28;20173;-78
2023/01/23 13:02:02;;;;;;;12.60;8.40;;;;;;;;;;5054665;28;20163;-78
2023/01/23 13:04:47;;;;;;;12.63;9.30;;;;;;;;;;5051734;28;20181;-79
2023/01/23 13:07:20;;;;;;;13.68;8.98;;;;;;;;;;5047229;28;20233;-79
2023/01/23 13:10:05;;;;;;;11.75;8.48;;;;;;;;;;5053008;28;20228;-78
2023/01/23 13:12:31;;;;;;;13.25;8.02;;;;;;;;;;5049644;28;20175;-78
2023/01/23 13:15:15;;;;;;;12.35;8.13;;;;;;;;;;5034723;28;20179;-80
2023/01/23 13:17:49;;;;;;;10.90;8.02;;;;;;;;;;5038703;28;20254;-78
2023/01/23 13:23:17;;;;;;;8.55;6.57;;;;;;;;;;5037944;28;20671;-78
2023/01/23 13:25:43;;;;;;;9.35;5.75;;;;;;;;;;5036498;28;20580;-78
2023/01/23 13:28:28;;;;;;;9.17;6.60;;;;;;;;;;5049840;28;20189;-78
2023/01/23 13:31:04;;;;;;;8.38;5.90;;;;;;;;;;5056871;28;20481;-78
2023/01/23 13:33:33;;;;;;;8.63;6.63;;;;;;;;;;5057636;28;20255;-79
2023/01/23 13:36:12;;;;;;;8.82;6.20;;;;;;;;;;5056698;28;20540;-79
2023/01/23 13:38:39;;;;;;;9.90;7.97;;;;;;;;;;5054303;28;20280;-79
2023/01/23 13:41:10;;;;;;;11.00;7.38;;;;;;;;;;5039971;28;20273;-79
2023/01/23 13:43:51;;;;;;;11.98;9.75;;;;;;;;;;5057994;28;20158;-79
2023/01/23 13:46:36;;;;;;;9.93;8.00;;;;;;;;;;5055810;28;20230;-79
2023/01/23 13:56:37;;;;;;;12.32;8.10;;;;;;;;;;5057570;28;20263;-79
2023/01/23 13:57:33;;;;;;;9.90;7.30;;;;;;;;;;5050615;28;20189;-79
2023/01/23 13:59:59;;;;;;;12.97;8.43;;;;;;;;;;5048899;28;20633;-78
2023/01/23 14:05:15;;;;;;;9.68;7.38;;;;;;;;;;5037941;28;20256;-79
2023/01/23 14:07:42;;;;;;;16.63;8.40;;;;;;;;;;5049594;28;20224;-78
2023/01/23 14:10:22;;;;;;;8.25;6.78;;;;;;;;;;5039141;28;20209;-78
2023/01/23 14:12:48;;;;;;;10.63;6.85;;;;;;;;;;5038628;28;20185;-79
2023/01/23 14:18:04;;;;;;;11.82;7.72;;;;;;;;;;5057495;28;20667;-78
2023/01/23 14:20:38;;;;;;;9.30;7.10;;;;;;;;;;5056824;28;20174;-79
2023/01/23 14:23:05;;;;;;;9.35;7.03;;;;;;;;;;5056935;28;20237;-78
2023/01/23 14:25:32;;;;;;;9.60;7.47;;;;;;;;;;5038649;28;20177;-79
2023/01/23 14:28:05;;;;;;;9.07;7.47;;;;;;;;;;5038849;28;20185;-78
2023/01/23 14:30:31;;;;;;;8.23;7.00;;;;;;;;;;5038607;28;20296;-79
2023/01/23 14:33:00;;;;;;;10.30;7.80;;;;;;;;;;5039182;28;20174;-78
2023/01/23 14:35:32;;;;;;;11.20;8.82;;;;;;;;;;5044885;28;20633;-79
2023/01/23 14:38:07;;;;;;;10.68;8.25;;;;;;;;;;5059800;28;20181;-79
2023/01/23 14:40:34;;;;;;;11.43;7.95;;;;;;;;;;5077629;28;20197;-78
2023/01/23 14:43:06;;;;;;;14.07;9.15;;;;;;;;;;5058340;28;20622;-79
2023/01/23 14:45:33;;;;;;;11.77;8.80;;;;;;;;;;5042719;28;20177;-79
2023/01/23 14:47:59;;;;;;;13.68;8.02;;;;;;;;;;5038656;28;20652;-79
2023/01/23 14:50:26;;;;;;;12.38;8.75;;;;;;;;;;5038157;28;20225;-79
2023/01/23 14:53:00;;;;;;;13.00;8.00;;;;;;;;;;5038940;28;20178;-79